Sunday, May 27, 2018, 5:46 AM EDT
Back to Local

KLNS, Lancaster Airport

Location: Lititz, PA, United States Lat: 40.117
Local Time: 5:46 AM EDT ( 9:46 GMT) Lon: -76.3
Time Zone: US/Eastern Elev: 403 ft

Show me the last for .
Show Coded

Time T Td Feel RH Dir Speed Gust Alt SLP Vis Weather Sky Remarks
2018-05-27 05:07 72 71 77 97 - Calm - 29.87 - 3 BR FEW070 BKN110 None
2018-05-27 04:53 72 71 77 97 - Calm - 29.87 29.85 2 BR FEW070 BKN110 1-hr Precip Total: Trace
6-hr Precip Total (5am): 0.01"
2018-05-27 04:48 72 72 76 100 - Calm - 29.87 - 2 BR FEW070 BKN110 1-hr Precip Total: Trace
2018-05-27 03:53 73 71 77 93 - Calm - 29.87 29.85 5 -RA BR FEW090 BKN110 1-hr Precip Total: 0.01"
2018-05-27 02:53 73 72 77 96 150° 3 - 29.87 29.85 5 BR BKN110 None
2018-05-27 01:53 74 72 78 93 - Calm - 29.87 29.86 7 SCT120 1-hr Precip Total: 0.01"
6-hr Precip Total (2am): 0.03"
6-hr Min Temp (2am): 73.0°F
6-hr Max Temp (2am): 82.0°F
2018-05-27 00:53 75 71 79 87 210° 3 - 29.88 29.87 9 -RA FEW037 FEW060 OVC110 1-hr Precip Total: 0.01"
24-hr Min Temp (1am): 64.9°F
24-hr Max Temp (1am): 90.0°F
2018-05-26 23:53 75 72 79 90 - Calm - 29.88 29.87 10 BKN120 1-hr Precip Total: 0.01"
2018-05-26 22:53 77 69 80 76 - Calm - 29.87 29.86 10 FEW110 None
2018-05-26 21:53 79 69 82 71 240° 5 - 29.86 29.85 10 CLR None
2018-05-26 20:53 80 68 83 66 240° 9 - 29.84 29.83 10 CLR None
2018-05-26 19:53 82 70 86 67 200° 12 - 29.82 29.81 10 CLR 6-hr Min Temp (8pm): 82.0°F
6-hr Max Temp (8pm): 90.0°F
2018-05-26 18:53 87 64 89 46 260° 7 - 29.80 29.79 10 CLR None
2018-05-26 17:53 88 63 90 43 270° 9 - 29.80 29.79 10 CLR None
2018-05-26 16:53 89 63 91 42 240° 9 16 29.80 29.79 10 FEW085 None
2018-05-26 15:53 89 63 91 42 260° 9 - 29.79 29.78 10 CLR None
2018-05-26 14:53 88 65 91 46 Variable 5 - 29.81 29.80 10 FEW060 None
2018-05-26 13:53 88 67 92 49 260° 8 - 29.83 29.81 10 FEW050 6-hr Min Temp (2pm): 72.0°F
6-hr Max Temp (2pm): 89.1°F
2018-05-26 12:53 85 70 90 61 Variable 5 - 29.85 29.83 10 SCT038 None
2018-05-26 11:53 85 70 90 61 270° 7 - 29.85 29.84 10 CLR None
2018-05-26 10:53 83 71 88 67 270° 5 - 29.85 29.84 10 CLR None
2018-05-26 09:53 80 69 84 69 290° 6 - 29.87 29.86 9 CLR None
2018-05-26 08:53 76 69 79 79 270° 6 - 29.87 29.86 7 SCT060 None
2018-05-26 07:53 72 68 76 87 290° 3 - 29.87 29.86 7 FEW100 6-hr Min Temp (8am): 64.9°F
6-hr Max Temp (8am): 72.0°F
2018-05-26 06:53 70 67 - 90 - Calm - 29.86 29.85 5 BR CLR None
2018-05-26 05:53 66 65 - 96 - Calm - 29.85 29.84 3 BR CLR None

Support USWX by starting your Amazon purchase here.